Antelope, Oregon
Current Conditions -  °F | °C
As of 5:15 AM on Friday 31 Oct 2014 (Local Time) from KS39 Reporting Station
Light Rain Light Rain  
Wind Chill: 46°   Ceiling: 3800
Heat Index: 46°   Visibility: 7mi
Dew Point: 46°   Wind: 3mph
Humidity: 100%   Direction: 230°SW
Pressure: 29.76"   Gusts: NA
Location:  44.91°N, 120.72°W
Report Text: KS39 311215Z AUTO 23003KT 7SM -RA FEW031 BKN038 OVC060 08/08 A2976 RMK AO2
Loading
Personal Weather Stations






























Interactive Weather Map New forecast layout! Learn more

10-Day Weather Forecast

Advertisements
Track Severe Weather on mobile